sensor_id;sensor_type;location;lat;lon;timestamp;P1;durP1;ratioP1;P2;durP2;ratioP2
4575;SDS011;2300;51.874;8.430;2022-08-01T00:02:09;34.88;;;24.23;;
4575;SDS011;2300;51.874;8.430;2022-08-01T00:04:36;35.08;;;23.42;;
4575;SDS011;2300;51.874;8.430;2022-08-01T00:07:03;35.78;;;24.15;;
4575;SDS011;2300;51.874;8.430;2022-08-01T00:09:29;35.95;;;24.50;;
4575;SDS011;2300;51.874;8.430;2022-08-01T00:11:56;40.10;;;24.15;;
4575;SDS011;2300;51.874;8.430;2022-08-01T00:14:22;35.78;;;23.77;;
4575;SDS011;2300;51.874;8.430;2022-08-01T00:16:49;33.28;;;24.55;;
4575;SDS011;2300;51.874;8.430;2022-08-01T00:19:15;32.28;;;24.73;;
4575;SDS011;2300;51.874;8.430;2022-08-01T00:21:43;34.42;;;25.67;;
4575;SDS011;2300;51.874;8.430;2022-08-01T00:24:10;32.88;;;24.52;;
4575;SDS011;2300;51.874;8.430;2022-08-01T00:26:36;37.50;;;26.63;;
4575;SDS011;2300;51.874;8.430;2022-08-01T00:29:03;34.83;;;25.13;;
4575;SDS011;2300;51.874;8.430;2022-08-01T00:31:29;34.03;;;25.73;;
4575;SDS011;2300;51.874;8.430;2022-08-01T00:33:55;31.58;;;24.70;;
4575;SDS011;2300;51.874;8.430;2022-08-01T00:36:22;41.40;;;27.05;;
4575;SDS011;2300;51.874;8.430;2022-08-01T00:38:50;37.10;;;27.00;;
4575;SDS011;2300;51.874;8.430;2022-08-01T00:41:16;39.75;;;27.65;;
4575;SDS011;2300;51.874;8.430;2022-08-01T00:43:43;38.80;;;27.90;;
4575;SDS011;2300;51.874;8.430;2022-08-01T00:46:10;39.15;;;27.80;;
4575;SDS011;2300;51.874;8.430;2022-08-01T00:48:37;32.95;;;23.73;;
4575;SDS011;2300;51.874;8.430;2022-08-01T00:51:04;30.15;;;22.38;;
4575;SDS011;2300;51.874;8.430;2022-08-01T00:53:31;32.00;;;21.70;;
4575;SDS011;2300;51.874;8.430;2022-08-01T00:55:59;30.35;;;21.73;;
4575;SDS011;2300;51.874;8.430;2022-08-01T00:58:26;28.55;;;20.77;;
4575;SDS011;2300;51.874;8.430;2022-08-01T01:00:54;29.05;;;19.95;;
4575;SDS011;2300;51.874;8.430;2022-08-01T01:03:21;28.38;;;19.63;;
4575;SDS011;2300;51.874;8.430;2022-08-01T01:05:52;29.58;;;18.45;;
4575;SDS011;2300;51.874;8.430;2022-08-01T01:08:32;26.85;;;19.08;;
4575;SDS011;2300;51.874;8.430;2022-08-01T01:11:08;27.40;;;18.85;;
4575;SDS011;2300;51.874;8.430;2022-08-01T01:13:41;30.13;;;20.55;;
4575;SDS011;2300;51.874;8.430;2022-08-01T01:16:12;28.95;;;20.58;;
4575;SDS011;2300;51.874;8.430;2022-08-01T01:18:42;28.75;;;20.58;;
4575;SDS011;2300;51.874;8.430;2022-08-01T01:21:14;29.60;;;20.83;;
4575;SDS011;2300;51.874;8.430;2022-08-01T01:23:59;32.97;;;21.80;;
4575;SDS011;2300;51.874;8.430;2022-08-01T01:26:38;31.30;;;22.02;;
4575;SDS011;2300;51.874;8.430;2022-08-01T01:29:13;30.52;;;22.15;;
4575;SDS011;2300;51.874;8.430;2022-08-01T01:31:44;32.70;;;22.33;;
4575;SDS011;2300;51.874;8.430;2022-08-01T01:34:15;33.65;;;22.52;;
4575;SDS011;2300;51.874;8.430;2022-08-01T01:36:44;31.52;;;23.63;;
4575;SDS011;2300;51.874;8.430;2022-08-01T01:39:13;33.10;;;23.15;;
4575;SDS011;2300;51.874;8.430;2022-08-01T01:41:43;32.40;;;22.17;;
4575;SDS011;2300;51.874;8.430;2022-08-01T01:44:12;34.20;;;22.38;;
4575;SDS011;2300;51.874;8.430;2022-08-01T01:46:41;29.95;;;21.65;;
4575;SDS011;2300;51.874;8.430;2022-08-01T01:49:08;35.33;;;23.35;;
4575;SDS011;2300;51.874;8.430;2022-08-01T01:51:37;30.48;;;22.13;;
4575;SDS011;2300;51.874;8.430;2022-08-01T01:54:07;34.55;;;22.25;;
4575;SDS011;2300;51.874;8.430;2022-08-01T01:56:35;29.42;;;21.92;;
4575;SDS011;2300;51.874;8.430;2022-08-01T01:59:15;34.40;;;22.40;;
4575;SDS011;2300;51.874;8.430;2022-08-01T02:01:46;30.55;;;20.67;;
4575;SDS011;2300;51.874;8.430;2022-08-01T02:04:15;31.38;;;20.50;;
4575;SDS011;2300;51.874;8.430;2022-08-01T02:06:43;28.70;;;20.35;;
4575;SDS011;2300;51.874;8.430;2022-08-01T02:09:14;27.63;;;20.05;;
4575;SDS011;2300;51.874;8.430;2022-08-01T02:11:43;32.63;;;19.80;;
4575;SDS011;2300;51.874;8.430;2022-08-01T02:14:12;33.22;;;20.13;;
4575;SDS011;2300;51.874;8.430;2022-08-01T02:16:42;29.95;;;19.50;;
4575;SDS011;2300;51.874;8.430;2022-08-01T02:19:10;29.13;;;19.23;;
4575;SDS011;2300;51.874;8.430;2022-08-01T02:21:39;30.63;;;19.35;;
4575;SDS011;2300;51.874;8.430;2022-08-01T02:24:12;28.15;;;19.15;;
4575;SDS011;2300;51.874;8.430;2022-08-01T02:26:42;27.45;;;18.88;;
4575;SDS011;2300;51.874;8.430;2022-08-01T02:29:13;26.83;;;19.25;;
4575;SDS011;2300;51.874;8.430;2022-08-01T02:31:46;27.45;;;17.85;;
4575;SDS011;2300;51.874;8.430;2022-08-01T02:34:15;27.38;;;15.75;;
4575;SDS011;2300;51.874;8.430;2022-08-01T02:36:44;25.20;;;16.08;;
4575;SDS011;2300;51.874;8.430;2022-08-01T02:39:14;23.52;;;15.18;;
4575;SDS011;2300;51.874;8.430;2022-08-01T02:41:45;23.30;;;13.77;;
4575;SDS011;2300;51.874;8.430;2022-08-01T02:44:15;18.08;;;12.23;;
4575;SDS011;2300;51.874;8.430;2022-08-01T02:46:51;22.25;;;13.18;;
4575;SDS011;2300;51.874;8.430;2022-08-01T02:49:20;16.17;;;12.82;;
4575;SDS011;2300;51.874;8.430;2022-08-01T02:51:50;21.95;;;12.82;;
4575;SDS011;2300;51.874;8.430;2022-08-01T02:54:19;19.15;;;12.25;;
4575;SDS011;2300;51.874;8.430;2022-08-01T02:56:48;14.73;;;11.75;;
4575;SDS011;2300;51.874;8.430;2022-08-01T02:59:18;15.77;;;11.57;;
4575;SDS011;2300;51.874;8.430;2022-08-01T03:01:46;14.25;;;10.82;;
4575;SDS011;2300;51.874;8.430;2022-08-01T03:04:15;16.25;;;11.02;;
4575;SDS011;2300;51.874;8.430;2022-08-01T03:06:43;16.33;;;9.80;;
4575;SDS011;2300;51.874;8.430;2022-08-01T03:09:11;15.50;;;10.30;;
4575;SDS011;2300;51.874;8.430;2022-08-01T03:11:41;14.07;;;10.00;;
4575;SDS011;2300;51.874;8.430;2022-08-01T03:14:09;13.43;;;9.77;;
4575;SDS011;2300;51.874;8.430;2022-08-01T03:16:38;14.73;;;10.73;;
4575;SDS011;2300;51.874;8.430;2022-08-01T03:19:07;14.85;;;10.55;;
4575;SDS011;2300;51.874;8.430;2022-08-01T03:21:37;13.35;;;8.95;;
4575;SDS011;2300;51.874;8.430;2022-08-01T03:24:06;14.32;;;9.40;;
4575;SDS011;2300;51.874;8.430;2022-08-01T03:26:34;13.45;;;9.57;;
4575;SDS011;2300;51.874;8.430;2022-08-01T03:29:03;15.15;;;10.45;;
4575;SDS011;2300;51.874;8.430;2022-08-01T03:31:32;17.83;;;10.43;;
4575;SDS011;2300;51.874;8.430;2022-08-01T03:34:02;14.07;;;9.55;;
4575;SDS011;2300;51.874;8.430;2022-08-01T03:36:29;16.30;;;9.75;;
4575;SDS011;2300;51.874;8.430;2022-08-01T03:39:02;17.75;;;10.60;;
4575;SDS011;2300;51.874;8.430;2022-08-01T03:41:33;13.45;;;10.05;;
4575;SDS011;2300;51.874;8.430;2022-08-01T03:44:07;18.17;;;10.75;;
4575;SDS011;2300;51.874;8.430;2022-08-01T03:46:40;20.38;;;10.60;;
4575;SDS011;2300;51.874;8.430;2022-08-01T03:49:11;17.75;;;11.15;;
4575;SDS011;2300;51.874;8.430;2022-08-01T03:51:43;15.80;;;11.35;;
4575;SDS011;2300;51.874;8.430;2022-08-01T03:54:12;20.50;;;11.57;;
4575;SDS011;2300;51.874;8.430;2022-08-01T03:56:40;17.02;;;11.80;;
4575;SDS011;2300;51.874;8.430;2022-08-01T03:59:09;18.60;;;11.98;;
4575;SDS011;2300;51.874;8.430;2022-08-01T04:01:36;22.42;;;13.07;;
4575;SDS011;2300;51.874;8.430;2022-08-01T04:04:03;20.45;;;13.20;;
4575;SDS011;2300;51.874;8.430;2022-08-01T04:06:31;19.83;;;13.32;;
4575;SDS011;2300;51.874;8.430;2022-08-01T04:08:57;20.90;;;13.88;;
4575;SDS011;2300;51.874;8.430;2022-08-01T04:11:25;19.65;;;13.65;;
4575;SDS011;2300;51.874;8.430;2022-08-01T04:13:54;19.13;;;13.02;;
4575;SDS011;2300;51.874;8.430;2022-08-01T04:16:20;21.70;;;13.35;;
4575;SDS011;2300;51.874;8.430;2022-08-01T04:18:47;23.48;;;13.85;;
4575;SDS011;2300;51.874;8.430;2022-08-01T04:21:14;22.17;;;14.73;;
4575;SDS011;2300;51.874;8.430;2022-08-01T04:23:44;21.33;;;13.75;;
4575;SDS011;2300;51.874;8.430;2022-08-01T04:26:12;22.45;;;14.50;;
4575;SDS011;2300;51.874;8.430;2022-08-01T04:28:43;21.63;;;13.77;;
4575;SDS011;2300;51.874;8.430;2022-08-01T04:31:11;21.63;;;14.05;;
4575;SDS011;2300;51.874;8.430;2022-08-01T04:33:48;24.77;;;14.77;;
4575;SDS011;2300;51.874;8.430;2022-08-01T04:36:18;19.33;;;13.40;;
4575;SDS011;2300;51.874;8.430;2022-08-01T04:38:48;20.30;;;14.25;;
4575;SDS011;2300;51.874;8.430;2022-08-01T04:41:18;24.15;;;14.18;;
4575;SDS011;2300;51.874;8.430;2022-08-01T04:43:48;22.48;;;14.52;;
4575;SDS011;2300;51.874;8.430;2022-08-01T04:46:16;21.33;;;13.85;;
4575;SDS011;2300;51.874;8.430;2022-08-01T04:48:43;22.58;;;14.00;;
4575;SDS011;2300;51.874;8.430;2022-08-01T04:51:11;20.48;;;14.43;;
4575;SDS011;2300;51.874;8.430;2022-08-01T04:53:40;24.85;;;15.10;;
4575;SDS011;2300;51.874;8.430;2022-08-01T04:56:06;21.70;;;14.23;;
4575;SDS011;2300;51.874;8.430;2022-08-01T04:58:33;24.08;;;14.43;;
4575;SDS011;2300;51.874;8.430;2022-08-01T05:01:01;24.33;;;14.85;;
4575;SDS011;2300;51.874;8.430;2022-08-01T05:03:28;25.25;;;15.82;;
4575;SDS011;2300;51.874;8.430;2022-08-01T05:05:54;24.15;;;15.95;;
4575;SDS011;2300;51.874;8.430;2022-08-01T05:08:20;26.08;;;16.05;;
4575;SDS011;2300;51.874;8.430;2022-08-01T05:10:47;24.58;;;15.43;;
4575;SDS011;2300;51.874;8.430;2022-08-01T05:13:15;26.55;;;16.15;;
4575;SDS011;2300;51.874;8.430;2022-08-01T05:15:42;24.48;;;14.77;;
4575;SDS011;2300;51.874;8.430;2022-08-01T05:18:11;25.63;;;15.45;;
4575;SDS011;2300;51.874;8.430;2022-08-01T05:20:38;25.95;;;15.18;;
4575;SDS011;2300;51.874;8.430;2022-08-01T05:23:04;22.13;;;14.93;;
4575;SDS011;2300;51.874;8.430;2022-08-01T05:25:31;22.90;;;14.48;;
4575;SDS011;2300;51.874;8.430;2022-08-01T05:27:58;21.08;;;14.15;;
4575;SDS011;2300;51.874;8.430;2022-08-01T05:30:24;19.95;;;13.88;;
4575;SDS011;2300;51.874;8.430;2022-08-01T05:32:51;22.27;;;14.18;;
4575;SDS011;2300;51.874;8.430;2022-08-01T05:35:19;22.70;;;14.70;;
4575;SDS011;2300;51.874;8.430;2022-08-01T05:37:45;20.25;;;14.40;;
4575;SDS011;2300;51.874;8.430;2022-08-01T05:40:12;24.35;;;15.65;;
4575;SDS011;2300;51.874;8.430;2022-08-01T05:42:38;22.23;;;15.05;;
4575;SDS011;2300;51.874;8.430;2022-08-01T05:45:05;25.50;;;16.40;;
4575;SDS011;2300;51.874;8.430;2022-08-01T05:47:32;23.55;;;16.38;;
4575;SDS011;2300;51.874;8.430;2022-08-01T05:49:58;24.30;;;15.82;;
4575;SDS011;2300;51.874;8.430;2022-08-01T05:52:26;24.00;;;15.60;;
4575;SDS011;2300;51.874;8.430;2022-08-01T05:54:53;19.95;;;14.40;;
4575;SDS011;2300;51.874;8.430;2022-08-01T05:57:20;24.17;;;15.55;;
4575;SDS011;2300;51.874;8.430;2022-08-01T05:59:47;24.23;;;15.45;;
4575;SDS011;2300;51.874;8.430;2022-08-01T06:02:15;25.58;;;15.73;;
4575;SDS011;2300;51.874;8.430;2022-08-01T06:04:42;22.77;;;14.82;;
4575;SDS011;2300;51.874;8.430;2022-08-01T06:07:09;23.65;;;15.68;;
4575;SDS011;2300;51.874;8.430;2022-08-01T06:09:37;22.85;;;16.13;;
4575;SDS011;2300;51.874;8.430;2022-08-01T06:12:04;25.73;;;16.90;;
4575;SDS011;2300;51.874;8.430;2022-08-01T06:14:31;22.92;;;15.00;;
4575;SDS011;2300;51.874;8.430;2022-08-01T06:16:58;20.17;;;15.25;;
4575;SDS011;2300;51.874;8.430;2022-08-01T06:19:24;21.63;;;15.18;;
4575;SDS011;2300;51.874;8.430;2022-08-01T06:21:51;20.02;;;13.52;;
4575;SDS011;2300;51.874;8.430;2022-08-01T06:24:17;19.50;;;13.52;;
4575;SDS011;2300;51.874;8.430;2022-08-01T06:26:45;22.73;;;13.48;;
4575;SDS011;2300;51.874;8.430;2022-08-01T06:29:12;19.65;;;13.57;;
4575;SDS011;2300;51.874;8.430;2022-08-01T06:31:38;18.10;;;13.55;;
4575;SDS011;2300;51.874;8.430;2022-08-01T06:34:05;19.63;;;14.15;;
4575;SDS011;2300;51.874;8.430;2022-08-01T06:36:31;24.02;;;15.70;;
4575;SDS011;2300;51.874;8.430;2022-08-01T06:38:58;19.45;;;14.85;;
4575;SDS011;2300;51.874;8.430;2022-08-01T06:41:24;17.35;;;12.38;;
4575;SDS011;2300;51.874;8.430;2022-08-01T06:43:59;17.10;;;12.60;;
4575;SDS011;2300;51.874;8.430;2022-08-01T06:46:27;15.52;;;12.45;;
4575;SDS011;2300;51.874;8.430;2022-08-01T06:48:53;15.43;;;11.63;;
4575;SDS011;2300;51.874;8.430;2022-08-01T06:51:20;13.18;;;11.18;;
4575;SDS011;2300;51.874;8.430;2022-08-01T06:53:46;11.70;;;10.25;;
4575;SDS011;2300;51.874;8.430;2022-08-01T06:56:13;14.27;;;11.43;;
4575;SDS011;2300;51.874;8.430;2022-08-01T06:58:40;13.30;;;9.93;;
4575;SDS011;2300;51.874;8.430;2022-08-01T07:01:08;12.32;;;10.25;;
4575;SDS011;2300;51.874;8.430;2022-08-01T07:03:35;11.38;;;9.93;;
4575;SDS011;2300;51.874;8.430;2022-08-01T07:06:02;14.10;;;10.02;;
4575;SDS011;2300;51.874;8.430;2022-08-01T07:08:29;11.85;;;10.63;;
4575;SDS011;2300;51.874;8.430;2022-08-01T07:10:55;12.55;;;9.60;;
4575;SDS011;2300;51.874;8.430;2022-08-01T07:13:24;12.70;;;10.18;;
4575;SDS011;2300;51.874;8.430;2022-08-01T07:15:51;12.48;;;10.90;;
4575;SDS011;2300;51.874;8.430;2022-08-01T07:18:19;14.05;;;9.88;;
4575;SDS011;2300;51.874;8.430;2022-08-01T07:20:45;10.95;;;9.40;;
4575;SDS011;2300;51.874;8.430;2022-08-01T07:23:12;11.98;;;9.85;;
4575;SDS011;2300;51.874;8.430;2022-08-01T07:25:39;12.13;;;10.05;;
4575;SDS011;2300;51.874;8.430;2022-08-01T07:28:05;12.15;;;10.23;;
4575;SDS011;2300;51.874;8.430;2022-08-01T07:30:32;12.02;;;9.93;;
4575;SDS011;2300;51.874;8.430;2022-08-01T07:32:59;10.80;;;9.52;;
4575;SDS011;2300;51.874;8.430;2022-08-01T07:35:27;11.20;;;9.15;;
4575;SDS011;2300;51.874;8.430;2022-08-01T07:37:53;11.00;;;9.15;;
4575;SDS011;2300;51.874;8.430;2022-08-01T07:40:22;9.25;;;8.07;;
4575;SDS011;2300;51.874;8.430;2022-08-01T07:42:49;8.52;;;6.88;;
4575;SDS011;2300;51.874;8.430;2022-08-01T07:45:15;7.22;;;6.20;;
4575;SDS011;2300;51.874;8.430;2022-08-01T07:47:42;8.27;;;6.05;;
4575;SDS011;2300;51.874;8.430;2022-08-01T07:50:08;9.20;;;6.82;;
4575;SDS011;2300;51.874;8.430;2022-08-01T07:52:36;6.90;;;5.88;;
4575;SDS011;2300;51.874;8.430;2022-08-01T07:55:03;7.60;;;6.10;;
4575;SDS011;2300;51.874;8.430;2022-08-01T07:57:31;7.05;;;5.70;;
4575;SDS011;2300;51.874;8.430;2022-08-01T07:59:57;6.25;;;5.63;;
4575;SDS011;2300;51.874;8.430;2022-08-01T08:02:24;5.10;;;4.60;;
4575;SDS011;2300;51.874;8.430;2022-08-01T08:04:51;7.40;;;4.93;;
4575;SDS011;2300;51.874;8.430;2022-08-01T08:07:17;6.40;;;4.22;;
4575;SDS011;2300;51.874;8.430;2022-08-01T08:09:45;7.32;;;5.57;;
4575;SDS011;2300;51.874;8.430;2022-08-01T08:12:13;6.70;;;5.63;;
4575;SDS011;2300;51.874;8.430;2022-08-01T08:14:39;6.57;;;5.38;;
4575;SDS011;2300;51.874;8.430;2022-08-01T08:17:06;5.97;;;4.90;;
4575;SDS011;2300;51.874;8.430;2022-08-01T08:19:33;6.15;;;5.35;;
4575;SDS011;2300;51.874;8.430;2022-08-01T08:22:03;6.85;;;5.93;;
4575;SDS011;2300;51.874;8.430;2022-08-01T08:24:29;6.40;;;5.70;;
4575;SDS011;2300;51.874;8.430;2022-08-01T08:26:57;8.50;;;6.30;;
4575;SDS011;2300;51.874;8.430;2022-08-01T08:29:25;8.52;;;6.70;;
4575;SDS011;2300;51.874;8.430;2022-08-01T08:31:54;7.18;;;6.43;;
4575;SDS011;2300;51.874;8.430;2022-08-01T08:34:22;8.98;;;7.30;;
4575;SDS011;2300;51.874;8.430;2022-08-01T08:36:49;7.68;;;6.57;;
4575;SDS011;2300;51.874;8.430;2022-08-01T08:39:15;7.28;;;6.35;;
4575;SDS011;2300;51.874;8.430;2022-08-01T08:41:42;6.25;;;5.25;;
4575;SDS011;2300;51.874;8.430;2022-08-01T08:44:10;6.70;;;5.00;;
4575;SDS011;2300;51.874;8.430;2022-08-01T08:46:39;5.00;;;3.60;;
4575;SDS011;2300;51.874;8.430;2022-08-01T08:49:10;4.28;;;2.60;;
4575;SDS011;2300;51.874;8.430;2022-08-01T08:51:38;3.80;;;2.45;;
4575;SDS011;2300;51.874;8.430;2022-08-01T08:54:07;3.10;;;2.42;;
4575;SDS011;2300;51.874;8.430;2022-08-01T08:56:36;6.97;;;3.60;;
4575;SDS011;2300;51.874;8.430;2022-08-01T08:59:03;3.03;;;2.72;;
4575;SDS011;2300;51.874;8.430;2022-08-01T09:01:31;6.65;;;3.03;;
4575;SDS011;2300;51.874;8.430;2022-08-01T09:04:00;4.53;;;2.90;;
4575;SDS011;2300;51.874;8.430;2022-08-01T09:06:27;3.35;;;2.30;;
4575;SDS011;2300;51.874;8.430;2022-08-01T09:08:54;3.85;;;2.10;;
4575;SDS011;2300;51.874;8.430;2022-08-01T09:11:21;3.13;;;2.33;;
4575;SDS011;2300;51.874;8.430;2022-08-01T09:14:00;4.78;;;2.30;;
4575;SDS011;2300;51.874;8.430;2022-08-01T09:16:29;4.55;;;2.47;;
4575;SDS011;2300;51.874;8.430;2022-08-01T09:19:07;3.30;;;2.47;;
4575;SDS011;2300;51.874;8.430;2022-08-01T09:21:35;3.85;;;2.70;;
4575;SDS011;2300;51.874;8.430;2022-08-01T09:24:03;6.38;;;4.05;;
4575;SDS011;2300;51.874;8.430;2022-08-01T09:26:32;6.40;;;4.10;;
4575;SDS011;2300;51.874;8.430;2022-08-01T09:29:01;6.68;;;4.85;;
4575;SDS011;2300;51.874;8.430;2022-08-01T09:31:38;8.48;;;5.53;;
4575;SDS011;2300;51.874;8.430;2022-08-01T09:34:07;6.93;;;3.80;;
4575;SDS011;2300;51.874;8.430;2022-08-01T09:36:45;4.90;;;3.60;;
4575;SDS011;2300;51.874;8.430;2022-08-01T09:39:16;3.25;;;2.47;;
4575;SDS011;2300;51.874;8.430;2022-08-01T09:41:44;3.13;;;2.00;;
4575;SDS011;2300;51.874;8.430;2022-08-01T09:44:11;4.43;;;2.42;;
4575;SDS011;2300;51.874;8.430;2022-08-01T09:46:45;3.45;;;2.10;;
4575;SDS011;2300;51.874;8.430;2022-08-01T09:49:26;3.70;;;2.78;;
4575;SDS011;2300;51.874;8.430;2022-08-01T09:51:53;4.38;;;2.67;;
4575;SDS011;2300;51.874;8.430;2022-08-01T09:54:27;3.92;;;2.90;;
4575;SDS011;2300;51.874;8.430;2022-08-01T09:56:55;4.38;;;3.50;;
4575;SDS011;2300;51.874;8.430;2022-08-01T09:59:36;8.32;;;5.38;;
4575;SDS011;2300;51.874;8.430;2022-08-01T10:02:06;7.50;;;6.30;;
4575;SDS011;2300;51.874;8.430;2022-08-01T10:04:34;10.70;;;6.70;;
4575;SDS011;2300;51.874;8.430;2022-08-01T10:07:05;8.18;;;6.97;;
4575;SDS011;2300;51.874;8.430;2022-08-01T10:09:33;7.93;;;6.35;;
4575;SDS011;2300;51.874;8.430;2022-08-01T10:12:01;7.28;;;6.20;;
4575;SDS011;2300;51.874;8.430;2022-08-01T10:14:29;8.85;;;5.80;;
4575;SDS011;2300;51.874;8.430;2022-08-01T10:16:57;6.85;;;6.13;;
4575;SDS011;2300;51.874;8.430;2022-08-01T10:19:25;10.25;;;7.03;;
4575;SDS011;2300;51.874;8.430;2022-08-01T10:21:58;8.60;;;4.95;;
4575;SDS011;2300;51.874;8.430;2022-08-01T10:24:27;7.43;;;5.40;;
4575;SDS011;2300;51.874;8.430;2022-08-01T10:26:56;7.05;;;5.57;;
4575;SDS011;2300;51.874;8.430;2022-08-01T10:29:28;7.47;;;5.43;;
4575;SDS011;2300;51.874;8.430;2022-08-01T10:32:00;12.90;;;9.55;;
4575;SDS011;2300;51.874;8.430;2022-08-01T10:34:28;11.55;;;10.07;;
4575;SDS011;2300;51.874;8.430;2022-08-01T10:36:55;12.90;;;11.18;;
4575;SDS011;2300;51.874;8.430;2022-08-01T10:39:23;12.80;;;10.50;;
4575;SDS011;2300;51.874;8.430;2022-08-01T10:41:53;14.60;;;10.73;;
4575;SDS011;2300;51.874;8.430;2022-08-01T10:44:20;10.68;;;8.93;;
4575;SDS011;2300;51.874;8.430;2022-08-01T10:46:48;8.82;;;7.80;;
4575;SDS011;2300;51.874;8.430;2022-08-01T10:49:19;10.43;;;8.57;;
4575;SDS011;2300;51.874;8.430;2022-08-01T10:51:52;10.93;;;8.43;;
4575;SDS011;2300;51.874;8.430;2022-08-01T10:54:19;11.18;;;9.15;;
4575;SDS011;2300;51.874;8.430;2022-08-01T10:56:47;11.52;;;8.73;;
4575;SDS011;2300;51.874;8.430;2022-08-01T10:59:15;10.90;;;8.80;;
4575;SDS011;2300;51.874;8.430;2022-08-01T11:01:55;10.45;;;9.40;;
4575;SDS011;2300;51.874;8.430;2022-08-01T11:04:26;13.82;;;9.57;;
4575;SDS011;2300;51.874;8.430;2022-08-01T11:07:03;11.95;;;10.27;;
4575;SDS011;2300;51.874;8.430;2022-08-01T11:09:31;11.85;;;9.32;;
4575;SDS011;2300;51.874;8.430;2022-08-01T11:12:08;11.88;;;9.55;;
4575;SDS011;2300;51.874;8.430;2022-08-01T11:17:37;12.60;;;10.00;;
4575;SDS011;2300;51.874;8.430;2022-08-01T11:20:10;9.43;;;8.30;;
4575;SDS011;2300;51.874;8.430;2022-08-01T11:26:06;10.52;;;7.95;;
4575;SDS011;2300;51.874;8.430;2022-08-01T11:28:39;10.15;;;7.50;;
4575;SDS011;2300;51.874;8.430;2022-08-01T11:31:26;10.68;;;9.15;;
4575;SDS011;2300;51.874;8.430;2022-08-01T11:33:57;12.60;;;9.57;;
4575;SDS011;2300;51.874;8.430;2022-08-01T11:36:24;11.43;;;10.32;;
4575;SDS011;2300;51.874;8.430;2022-08-01T11:41:37;14.93;;;11.73;;
4575;SDS011;2300;51.874;8.430;2022-08-01T11:44:08;14.00;;;12.50;;
4575;SDS011;2300;51.874;8.430;2022-08-01T11:46:47;15.70;;;13.93;;
4575;SDS011;2300;51.874;8.430;2022-08-01T11:49:25;16.17;;;13.68;;
4575;SDS011;2300;51.874;8.430;2022-08-01T11:52:09;13.07;;;11.75;;
4575;SDS011;2300;51.874;8.430;2022-08-01T11:54:38;13.02;;;11.25;;
4575;SDS011;2300;51.874;8.430;2022-08-01T11:57:08;11.45;;;9.93;;
4575;SDS011;2300;51.874;8.430;2022-08-01T11:59:38;10.85;;;9.75;;
4575;SDS011;2300;51.874;8.430;2022-08-01T12:02:21;11.68;;;10.48;;
4575;SDS011;2300;51.874;8.430;2022-08-01T12:04:53;12.25;;;10.55;;
4575;SDS011;2300;51.874;8.430;2022-08-01T12:07:23;12.07;;;9.65;;
4575;SDS011;2300;51.874;8.430;2022-08-01T12:09:58;10.50;;;9.40;;
4575;SDS011;2300;51.874;8.430;2022-08-01T12:12:27;11.95;;;10.75;;
4575;SDS011;2300;51.874;8.430;2022-08-01T12:14:56;11.57;;;10.38;;
4575;SDS011;2300;51.874;8.430;2022-08-01T12:17:28;10.52;;;9.43;;
4575;SDS011;2300;51.874;8.430;2022-08-01T12:19:55;9.05;;;8.02;;
4575;SDS011;2300;51.874;8.430;2022-08-01T12:22:22;9.30;;;8.18;;
4575;SDS011;2300;51.874;8.430;2022-08-01T12:24:50;8.48;;;7.68;;
4575;SDS011;2300;51.874;8.430;2022-08-01T12:27:27;10.05;;;8.93;;
4575;SDS011;2300;51.874;8.430;2022-08-01T12:29:56;9.13;;;8.23;;
4575;SDS011;2300;51.874;8.430;2022-08-01T12:32:25;8.52;;;7.63;;
4575;SDS011;2300;51.874;8.430;2022-08-01T12:34:54;7.80;;;6.85;;
4575;SDS011;2300;51.874;8.430;2022-08-01T12:37:22;8.65;;;6.25;;
4575;SDS011;2300;51.874;8.430;2022-08-01T12:39:50;7.60;;;6.70;;
4575;SDS011;2300;51.874;8.430;2022-08-01T12:42:27;10.93;;;7.55;;
4575;SDS011;2300;51.874;8.430;2022-08-01T12:44:55;7.38;;;6.47;;
4575;SDS011;2300;51.874;8.430;2022-08-01T12:47:22;8.60;;;7.43;;
4575;SDS011;2300;51.874;8.430;2022-08-01T12:49:49;8.90;;;7.22;;
4575;SDS011;2300;51.874;8.430;2022-08-01T12:52:16;9.48;;;6.97;;
4575;SDS011;2300;51.874;8.430;2022-08-01T12:55:00;7.40;;;6.70;;
4575;SDS011;2300;51.874;8.430;2022-08-01T12:57:28;9.13;;;6.13;;
4575;SDS011;2300;51.874;8.430;2022-08-01T13:00:05;8.23;;;6.75;;
4575;SDS011;2300;51.874;8.430;2022-08-01T13:02:36;8.32;;;6.05;;
4575;SDS011;2300;51.874;8.430;2022-08-01T13:05:04;7.40;;;6.22;;
4575;SDS011;2300;51.874;8.430;2022-08-01T13:07:39;7.70;;;6.55;;
4575;SDS011;2300;51.874;8.430;2022-08-01T13:10:08;9.52;;;7.45;;
4575;SDS011;2300;51.874;8.430;2022-08-01T13:12:36;10.77;;;8.68;;
4575;SDS011;2300;51.874;8.430;2022-08-01T13:18:00;10.70;;;8.10;;
4575;SDS011;2300;51.874;8.430;2022-08-01T13:20:46;10.20;;;7.40;;
4575;SDS011;2300;51.874;8.430;2022-08-01T13:23:14;10.63;;;7.35;;
4575;SDS011;2300;51.874;8.430;2022-08-01T13:25:51;9.05;;;7.90;;
4575;SDS011;2300;51.874;8.430;2022-08-01T13:28:20;9.95;;;6.90;;
4575;SDS011;2300;51.874;8.430;2022-08-01T13:30:57;9.00;;;7.35;;
4575;SDS011;2300;51.874;8.430;2022-08-01T13:33:25;8.30;;;7.15;;
4575;SDS011;2300;51.874;8.430;2022-08-01T13:35:53;8.80;;;6.40;;
4575;SDS011;2300;51.874;8.430;2022-08-01T13:38:20;8.38;;;6.95;;
4575;SDS011;2300;51.874;8.430;2022-08-01T13:41:08;10.38;;;7.70;;
4575;SDS011;2300;51.874;8.430;2022-08-01T13:43:34;11.85;;;8.10;;
4575;SDS011;2300;51.874;8.430;2022-08-01T13:46:02;9.93;;;7.15;;
4575;SDS011;2300;51.874;8.430;2022-08-01T13:48:30;11.75;;;8.25;;
4575;SDS011;2300;51.874;8.430;2022-08-01T13:51:00;14.65;;;9.23;;
4575;SDS011;2300;51.874;8.430;2022-08-01T13:53:26;10.40;;;7.80;;
4575;SDS011;2300;51.874;8.430;2022-08-01T13:55:54;9.15;;;7.63;;
4575;SDS011;2300;51.874;8.430;2022-08-01T13:58:21;12.50;;;8.63;;
4575;SDS011;2300;51.874;8.430;2022-08-01T14:00:47;10.32;;;6.85;;
4575;SDS011;2300;51.874;8.430;2022-08-01T14:03:19;8.35;;;5.82;;
4575;SDS011;2300;51.874;8.430;2022-08-01T14:05:45;8.68;;;5.90;;
4575;SDS011;2300;51.874;8.430;2022-08-01T14:08:12;11.40;;;6.20;;
4575;SDS011;2300;51.874;8.430;2022-08-01T14:10:38;10.27;;;6.47;;
4575;SDS011;2300;51.874;8.430;2022-08-01T14:13:05;7.80;;;4.50;;
4575;SDS011;2300;51.874;8.430;2022-08-01T14:15:32;6.22;;;5.45;;
4575;SDS011;2300;51.874;8.430;2022-08-01T14:17:58;11.20;;;5.55;;
4575;SDS011;2300;51.874;8.430;2022-08-01T14:20:27;7.32;;;5.57;;
4575;SDS011;2300;51.874;8.430;2022-08-01T14:22:54;8.35;;;6.07;;
4575;SDS011;2300;51.874;8.430;2022-08-01T14:25:20;8.07;;;5.68;;
4575;SDS011;2300;51.874;8.430;2022-08-01T14:27:49;7.90;;;6.32;;
4575;SDS011;2300;51.874;8.430;2022-08-01T14:30:15;9.38;;;7.00;;
4575;SDS011;2300;51.874;8.430;2022-08-01T14:32:42;10.60;;;5.60;;
4575;SDS011;2300;51.874;8.430;2022-08-01T14:35:08;8.40;;;6.07;;
4575;SDS011;2300;51.874;8.430;2022-08-01T14:37:36;11.32;;;8.65;;
4575;SDS011;2300;51.874;8.430;2022-08-01T14:40:03;9.43;;;6.22;;
4575;SDS011;2300;51.874;8.430;2022-08-01T14:42:33;8.43;;;5.40;;
4575;SDS011;2300;51.874;8.430;2022-08-01T14:45:00;8.70;;;6.18;;
4575;SDS011;2300;51.874;8.430;2022-08-01T14:47:27;9.35;;;6.03;;
4575;SDS011;2300;51.874;8.430;2022-08-01T14:49:54;9.55;;;6.00;;
4575;SDS011;2300;51.874;8.430;2022-08-01T14:52:21;13.07;;;5.78;;
4575;SDS011;2300;51.874;8.430;2022-08-01T14:54:49;9.18;;;5.47;;
4575;SDS011;2300;51.874;8.430;2022-08-01T14:57:15;8.65;;;5.20;;
4575;SDS011;2300;51.874;8.430;2022-08-01T14:59:43;7.35;;;4.88;;
4575;SDS011;2300;51.874;8.430;2022-08-01T15:02:10;9.43;;;6.00;;
4575;SDS011;2300;51.874;8.430;2022-08-01T15:04:38;8.43;;;5.60;;
4575;SDS011;2300;51.874;8.430;2022-08-01T15:07:04;9.13;;;5.70;;
4575;SDS011;2300;51.874;8.430;2022-08-01T15:09:31;8.10;;;5.85;;
4575;SDS011;2300;51.874;8.430;2022-08-01T15:11:59;8.35;;;5.72;;
4575;SDS011;2300;51.874;8.430;2022-08-01T15:14:25;8.98;;;5.60;;
4575;SDS011;2300;51.874;8.430;2022-08-01T15:17:09;8.52;;;5.57;;
4575;SDS011;2300;51.874;8.430;2022-08-01T15:19:36;7.40;;;5.15;;
4575;SDS011;2300;51.874;8.430;2022-08-01T15:22:03;7.93;;;4.80;;
4575;SDS011;2300;51.874;8.430;2022-08-01T15:24:30;9.35;;;5.50;;